createdAt,value
2023-02-01T00:13:06.473Z,4.90
2023-02-01T00:28:10.842Z,4.10
2023-02-01T00:43:15.284Z,5.17
2023-02-01T00:58:19.726Z,4.77
2023-02-01T01:13:25.452Z,5.70
2023-02-01T01:28:29.845Z,4.67
2023-02-01T01:43:53.824Z,4.77
2023-02-01T01:59:00.740Z,5.90
2023-02-01T02:14:08.821Z,5.40
2023-02-01T02:29:42.147Z,5.27
2023-02-01T02:45:08.318Z,7.27
2023-02-01T03:00:35.443Z,5.50
2023-02-01T03:15:44.308Z,4.57
2023-02-01T03:30:50.113Z,6.63
2023-02-01T03:46:00.158Z,6.77
2023-02-01T04:01:05.339Z,6.53
2023-02-01T04:16:12.816Z,8.53
2023-02-01T04:31:17.862Z,6.73
2023-02-01T04:46:22.507Z,6.70
2023-02-01T05:01:27.030Z,5.90
2023-02-01T05:16:31.599Z,6.57
2023-02-01T05:31:36.250Z,6.37
2023-02-01T05:46:40.772Z,6.97
2023-02-01T06:01:45.316Z,6.77
2023-02-01T06:16:49.684Z,6.53
2023-02-01T06:31:54.394Z,6.67
2023-02-01T06:46:58.920Z,6.50
2023-02-01T07:02:03.478Z,6.73
2023-02-01T07:17:08.162Z,7.63
2023-02-01T07:32:12.637Z,7.27
2023-02-01T07:47:18.256Z,8.47
2023-02-01T08:02:22.824Z,7.43
2023-02-01T08:17:28.717Z,9.67
2023-02-01T08:32:34.965Z,9.07
2023-02-01T08:47:39.916Z,8.20
2023-02-01T09:02:45.133Z,7.37
2023-02-01T09:17:49.948Z,8.93
2023-02-01T09:32:54.563Z,8.10
2023-02-01T09:48:03.814Z,8.10
2023-02-01T10:03:14.011Z,7.73
2023-02-01T10:18:44.286Z,7.70
2023-02-01T10:33:52.290Z,7.87
2023-02-01T10:48:58.263Z,7.47
2023-02-01T11:04:04.599Z,8.37
2023-02-01T11:19:09.434Z,8.40
2023-02-01T11:34:17.953Z,8.07
2023-02-01T11:49:25.274Z,8.20
2023-02-01T12:05:04.049Z,8.70
2023-02-01T12:20:25.658Z,7.40
2023-02-01T12:35:46.547Z,7.83
2023-02-01T12:50:54.903Z,7.67
2023-02-01T13:06:06.011Z,7.93
2023-02-01T13:21:15.938Z,6.67
2023-02-01T13:36:44.738Z,5.67
2023-02-01T13:51:52.773Z,7.27
2023-02-01T14:06:59.209Z,5.57
2023-02-01T14:22:36.473Z,7.40
2023-02-01T14:37:41.552Z,6.47
2023-02-01T14:52:48.676Z,6.90
2023-02-01T15:07:54.222Z,6.80
2023-02-01T15:23:02.511Z,5.37
2023-02-01T15:38:37.574Z,6.93
2023-02-01T15:53:48.133Z,6.17
2023-02-01T16:08:56.771Z,5.70
2023-02-01T16:24:04.835Z,5.70
2023-02-01T16:39:11.256Z,5.03
2023-02-01T16:54:15.723Z,5.80
2023-02-01T17:09:21.709Z,6.07
2023-02-01T17:24:33.255Z,6.40
2023-02-01T17:39:58.460Z,6.87
2023-02-01T17:55:04.721Z,5.83
2023-02-01T18:10:11.315Z,4.80
2023-02-01T18:25:21.379Z,6.43
2023-02-01T18:40:28.620Z,5.53
2023-02-01T18:55:33.914Z,5.30
2023-02-01T19:10:38.951Z,5.60
2023-02-01T19:25:46.925Z,5.93
2023-02-01T19:40:51.623Z,6.03
2023-02-01T19:55:58.036Z,8.03
2023-02-01T20:11:01.714Z,6.47
2023-02-01T20:26:08.983Z,6.50
2023-02-01T20:41:13.820Z,6.37
2023-02-01T20:56:18.693Z,6.03
2023-02-01T21:11:23.050Z,6.47
